createdAt,value
2023-04-08T00:04:14.873Z,4.48
2023-04-08T00:14:17.660Z,4.16
2023-04-08T00:24:21.607Z,3.92
2023-04-08T00:34:25.880Z,3.69
2023-04-08T00:44:45.015Z,3.60
2023-04-08T00:55:08.735Z,3.48
2023-04-08T01:05:41.939Z,3.19
2023-04-08T01:27:07.223Z,2.92
2023-04-08T01:37:18.208Z,2.67
2023-04-08T01:48:22.500Z,2.84
2023-04-08T01:58:28.203Z,2.19
2023-04-08T02:08:30.070Z,1.77
2023-04-08T02:18:35.866Z,1.33
2023-04-08T02:28:41.598Z,0.85
2023-04-08T02:38:49.334Z,0.86
2023-04-08T02:48:54.289Z,0.82
2023-04-08T02:59:00.136Z,0.32
2023-04-08T03:09:02.065Z,-0.04
2023-04-08T03:19:23.194Z,0.17
2023-04-08T03:29:25.118Z,0.11
2023-04-08T03:39:59.424Z,0.06
2023-04-08T03:50:01.349Z,0.20
2023-04-08T04:00:03.814Z,0.03
2023-04-08T04:10:06.257Z,0.03
2023-04-08T04:20:08.800Z,0.18
2023-04-08T04:30:10.994Z,0.61
2023-04-08T04:40:13.225Z,0.92
2023-04-08T04:50:54.494Z,2.22
2023-04-08T05:01:00.717Z,3.21
2023-04-08T05:11:02.638Z,3.90
2023-04-08T05:21:04.710Z,4.56
2023-04-08T05:31:06.806Z,5.04
2023-04-08T05:41:08.852Z,5.55
2023-04-08T05:51:15.306Z,5.79
2023-04-08T06:01:17.324Z,6.29
2023-04-08T06:11:19.252Z,6.72
2023-04-08T06:21:21.788Z,7.09
2023-04-08T06:31:23.716Z,7.19
2023-04-08T06:41:25.718Z,7.46
2023-04-08T06:51:34.709Z,7.58
2023-04-08T07:01:36.800Z,7.95
2023-04-08T07:11:38.733Z,8.68
2023-04-08T07:21:41.886Z,8.85
2023-04-08T07:31:44.635Z,9.56
2023-04-08T07:41:47.653Z,9.55
2023-04-08T07:51:56.127Z,9.85
2023-04-08T08:02:04.474Z,10.06
2023-04-08T08:12:14.597Z,10.61
2023-04-08T08:22:16.811Z,10.98
2023-04-08T08:32:19.299Z,11.00
2023-04-08T08:42:23.678Z,11.38
2023-04-08T08:52:51.887Z,11.11
2023-04-08T09:03:14.216Z,12.17
2023-04-08T09:13:17.641Z,12.25
2023-04-08T09:23:19.730Z,12.39
2023-04-08T09:33:35.451Z,11.96
2023-04-08T09:44:02.486Z,11.82
2023-04-08T09:54:14.286Z,12.03
2023-04-08T10:04:19.640Z,12.70
2023-04-08T10:14:22.708Z,13.07
2023-04-08T10:24:34.647Z,12.76
2023-04-08T10:34:52.884Z,13.04
2023-04-08T10:44:54.978Z,13.90
2023-04-08T10:54:57.100Z,11.99
2023-04-08T11:05:00.383Z,13.19
2023-04-08T11:15:06.585Z,11.90
2023-04-08T11:25:15.351Z,12.69
2023-04-08T11:35:17.466Z,12.36
2023-04-08T11:45:22.518Z,12.74
2023-04-08T11:55:49.237Z,12.73
2023-04-08T12:05:51.305Z,12.65
2023-04-08T12:16:00.257Z,12.85
2023-04-08T12:26:02.586Z,12.22
2023-04-08T12:36:04.793Z,12.54
2023-04-08T12:46:06.972Z,12.83
2023-04-08T12:56:09.013Z,12.35
2023-04-08T13:06:34.689Z,13.21
2023-04-08T13:16:37.330Z,13.15
2023-04-08T13:26:39.267Z,13.51
2023-04-08T13:36:41.180Z,13.13
2023-04-08T13:46:43.194Z,13.27
2023-04-08T13:56:47.284Z,12.95
2023-04-08T14:07:02.821Z,12.99
2023-04-08T14:17:04.899Z,13.01
2023-04-08T14:27:07.918Z,12.81
2023-04-08T14:37:20.808Z,12.90
2023-04-08T14:47:27.277Z,12.86
2023-04-08T14:57:29.717Z,12.59
2023-04-08T15:07:32.197Z,12.30
2023-04-08T15:17:45.066Z,12.19
2023-04-08T15:27:47.161Z,12.03
2023-04-08T15:37:49.130Z,11.92
2023-04-08T15:48:04.780Z,11.80
2023-04-08T15:58:16.792Z,11.66
2023-04-08T16:08:20.364Z,11.53
2023-04-08T16:18:22.511Z,11.35
2023-04-08T16:28:28.103Z,11.30
2023-04-08T16:38:33.408Z,11.20
2023-04-08T16:48:45.718Z,11.03
2023-04-08T16:58:47.630Z,10.98
2023-04-08T17:08:50.957Z,10.75
2023-04-08T17:18:53.105Z,10.59
2023-04-08T17:28:56.256Z,10.42
2023-04-08T17:39:00.322Z,10.40
2023-04-08T17:49:14.458Z,10.71
2023-04-08T17:59:16.611Z,10.91
2023-04-08T18:09:22.704Z,10.80
2023-04-08T18:19:37.818Z,10.85
2023-04-08T18:29:39.815Z,10.53
2023-04-08T18:39:41.901Z,10.04
2023-04-08T18:49:46.636Z,9.46
2023-04-08T19:00:10.911Z,8.86
2023-04-08T19:10:13.876Z,8.27
2023-04-08T19:20:25.930Z,8.13
2023-04-08T19:30:27.889Z,7.98
2023-04-08T19:40:29.960Z,7.69
2023-04-08T19:50:37.870Z,7.54
2023-04-08T20:00:40.338Z,7.36
2023-04-08T20:10:42.686Z,7.25
2023-04-08T20:20:45.990Z,7.13
2023-04-08T20:30:48.348Z,7.00
2023-04-08T20:40:50.362Z,7.31
2023-04-08T20:50:52.275Z,7.28
2023-04-08T21:01:00.656Z,7.27
2023-04-08T21:11:08.541Z,7.21
2023-04-08T21:21:14.324Z,7.14
2023-04-08T21:31:18.451Z,7.14
2023-04-08T21:41:30.405Z,7.11
2023-04-08T21:51:36.129Z,7.05
2023-04-08T22:01:43.984Z,6.88
2023-04-08T22:11:46.239Z,6.94
2023-04-08T22:21:51.399Z,6.98
2023-04-08T22:31:53.442Z,6.98
2023-04-08T22:41:56.071Z,6.94
2023-04-08T22:52:15.699Z,6.88
2023-04-08T23:02:17.829Z,6.84
2023-04-08T23:12:19.964Z,6.83
2023-04-08T23:22:34.791Z,6.79
2023-04-08T23:32:36.760Z,6.75
2023-04-08T23:42:38.693Z,6.71
2023-04-08T23:53:06.052Z,6.74
